createdAt,value
2019-03-23T00:00:45.879Z,989.5
2019-03-23T00:01:48.214Z,989.5
2019-03-23T00:02:49.529Z,989.4
2019-03-23T00:03:50.811Z,989.5
2019-03-23T00:04:52.352Z,989.4
2019-03-23T00:05:54.130Z,989.5
2019-03-23T00:06:55.453Z,989.5
2019-03-23T00:08:03.546Z,989.5
2019-03-23T00:09:04.792Z,989.4
2019-03-23T00:10:09.498Z,989.4
2019-03-23T00:11:11.001Z,989.2
2019-03-23T00:12:12.586Z,989.4
2019-03-23T00:13:14.177Z,989.4
2019-03-23T00:14:15.448Z,989.4
2019-03-23T00:15:17.332Z,989.4
2019-03-23T00:16:21.125Z,989.3
2019-03-23T00:17:22.408Z,989.3
2019-03-23T00:18:26.066Z,989.3
2019-03-23T00:19:27.328Z,989.1
2019-03-23T00:20:28.591Z,989.3
2019-03-23T00:21:29.882Z,989.3
2019-03-23T00:22:31.305Z,989.3
2019-03-23T00:23:32.590Z,989.3
2019-03-23T00:24:33.835Z,989.3
2019-03-23T00:25:35.278Z,989.3
2019-03-23T00:26:36.708Z,989.4
2019-03-23T00:27:38.225Z,989.3
2019-03-23T00:28:39.818Z,989.3
2019-03-23T00:29:41.388Z,989.4
2019-03-23T00:30:42.685Z,989.3
2019-03-23T00:31:44.175Z,989.4
2019-03-23T00:32:45.667Z,989.4
2019-03-23T00:33:47.015Z,989.4
2019-03-23T00:34:48.291Z,989.3
2019-03-23T00:35:49.548Z,989.3
2019-03-23T00:36:50.791Z,989.4
2019-03-23T00:37:52.277Z,989.2
2019-03-23T00:38:53.609Z,988.7
2019-03-23T00:39:55.257Z,989.3
2019-03-23T00:40:56.628Z,989.4
2019-03-23T00:41:57.869Z,989.3
2019-03-23T00:42:59.127Z,989.2
2019-03-23T00:44:00.447Z,989.2
2019-03-23T00:45:01.722Z,989.3
2019-03-23T00:46:03.016Z,989.2
2019-03-23T00:47:04.298Z,989.2
2019-03-23T00:48:05.755Z,989.2
2019-03-23T00:49:07.537Z,989.2
2019-03-23T00:50:08.905Z,989.2
2019-03-23T00:51:10.271Z,989.3
2019-03-23T00:52:11.529Z,989.2
2019-03-23T00:53:14.311Z,989.2
2019-03-23T00:54:15.973Z,989.2
2019-03-23T00:55:17.291Z,989.1
2019-03-23T00:56:18.789Z,989.2
2019-03-23T00:57:20.061Z,989.2
2019-03-23T00:58:21.343Z,989.2
2019-03-23T00:59:22.647Z,989.2
2019-03-23T01:00:24.002Z,989.2
2019-03-23T01:01:25.254Z,989.2
2019-03-23T01:02:26.844Z,989.2
2019-03-23T01:03:28.233Z,989.2
2019-03-23T01:04:29.547Z,989.2
2019-03-23T01:05:32.069Z,989.2
2019-03-23T01:06:33.379Z,989.2
2019-03-23T01:07:34.635Z,989.2
2019-03-23T01:08:35.943Z,989.2
2019-03-23T01:09:37.271Z,989.2
2019-03-23T01:10:38.753Z,989.1
2019-03-23T01:11:42.301Z,989.1
2019-03-23T01:12:43.551Z,989
2019-03-23T01:13:44.787Z,989.1
2019-03-23T01:14:46.393Z,989.1
2019-03-23T01:15:48.927Z,989.1
2019-03-23T01:16:50.175Z,989.1
2019-03-23T01:17:51.813Z,989
2019-03-23T01:18:53.257Z,989
2019-03-23T01:19:54.966Z,989
2019-03-23T01:20:56.295Z,989
2019-03-23T01:21:57.553Z,989
2019-03-23T01:22:58.797Z,988.9
2019-03-23T01:24:00.045Z,989
2019-03-23T01:25:01.331Z,988.9
2019-03-23T01:26:02.645Z,989
2019-03-23T01:27:03.974Z,989
2019-03-23T01:28:05.225Z,989
2019-03-23T01:29:06.497Z,988.9
2019-03-23T01:30:07.795Z,989
2019-03-23T01:31:11.375Z,988.9
2019-03-23T01:32:12.631Z,989
2019-03-23T01:33:13.891Z,988.9
2019-03-23T01:34:15.151Z,989
2019-03-23T01:35:16.483Z,989
2019-03-23T01:36:17.743Z,989
2019-03-23T01:37:19.005Z,989
2019-03-23T01:38:20.261Z,989.1
2019-03-23T01:39:21.511Z,989
2019-03-23T01:40:22.827Z,989
2019-03-23T01:41:24.072Z,989.1
2019-03-23T01:42:26.145Z,989.1
2019-03-23T01:43:27.396Z,989.1
2019-03-23T01:44:28.668Z,989
2019-03-23T01:45:29.960Z,989.1
2019-03-23T01:46:31.247Z,989.1
2019-03-23T01:47:32.522Z,989
2019-03-23T01:48:33.785Z,989.1
2019-03-23T01:49:35.043Z,989.1
2019-03-23T01:50:36.732Z,988.6
2019-03-23T01:51:38.017Z,989.1
2019-03-23T01:52:39.263Z,989.1
2019-03-23T01:53:40.517Z,989
2019-03-23T01:54:41.764Z,989.1
2019-03-23T01:55:43.055Z,989.1
2019-03-23T01:56:44.368Z,989
2019-03-23T01:57:45.616Z,989
2019-03-23T01:58:46.857Z,988.9
2019-03-23T01:59:48.109Z,988.9
2019-03-23T02:00:49.430Z,989
2019-03-23T02:01:51.346Z,988.9
2019-03-23T02:02:52.605Z,989
2019-03-23T02:03:53.848Z,989
2019-03-23T02:04:55.149Z,989
2019-03-23T02:05:56.844Z,988.9
2019-03-23T02:06:58.085Z,988.9
2019-03-23T02:07:59.357Z,988.9
2019-03-23T02:09:00.605Z,988.9
2019-03-23T02:10:01.865Z,988.8
2019-03-23T02:11:03.181Z,988.9
2019-03-23T02:12:04.460Z,988.8
2019-03-23T02:13:05.748Z,989
2019-03-23T02:14:07.014Z,989
2019-03-23T02:15:08.256Z,989
2019-03-23T02:16:09.543Z,989
2019-03-23T02:17:10.794Z,989
2019-03-23T02:18:12.072Z,989
2019-03-23T02:19:13.562Z,989
2019-03-23T02:20:14.816Z,989.1
2019-03-23T02:21:16.461Z,989
2019-03-23T02:22:17.716Z,989
2019-03-23T02:23:18.990Z,988.8
2019-03-23T02:24:20.274Z,989
2019-03-23T02:25:21.554Z,989
2019-03-23T02:26:22.948Z,988.9
2019-03-23T02:27:26.620Z,988.9
2019-03-23T02:28:27.884Z,989
2019-03-23T02:29:29.204Z,988.9
2019-03-23T02:30:30.444Z,988.8
2019-03-23T02:31:31.737Z,989
2019-03-23T02:32:33.005Z,989.1
2019-03-23T02:33:34.279Z,989
2019-03-23T02:34:35.528Z,989
2019-03-23T02:35:36.801Z,989.1
2019-03-23T02:36:38.481Z,989.1
2019-03-23T02:37:39.725Z,989.1
2019-03-23T02:38:40.996Z,989
2019-03-23T02:39:42.270Z,989.1
2019-03-23T02:40:48.020Z,989
2019-03-23T02:41:49.659Z,989
2019-03-23T02:42:50.938Z,988.9
2019-03-23T02:43:52.203Z,989
2019-03-23T02:44:53.879Z,989
2019-03-23T02:45:56.255Z,988.8
2019-03-23T02:46:57.562Z,988.9
2019-03-23T02:47:58.815Z,988.9
2019-03-23T02:49:00.103Z,989
2019-03-23T02:50:01.365Z,988.9
2019-03-23T02:51:02.625Z,989.1
2019-03-23T02:52:04.188Z,989
2019-03-23T02:53:05.446Z,989
2019-03-23T02:54:06.688Z,989
2019-03-23T02:55:07.928Z,989
2019-03-23T02:56:09.228Z,989
2019-03-23T02:57:10.541Z,989
2019-03-23T02:58:11.782Z,988.9
2019-03-23T02:59:13.220Z,989
2019-03-23T03:00:14.492Z,988.9
2019-03-23T03:01:15.788Z,988.8
2019-03-23T03:02:17.093Z,988.9
2019-03-23T03:03:18.360Z,988.9
2019-03-23T03:04:19.624Z,989
2019-03-23T03:05:20.897Z,989
2019-03-23T03:06:22.162Z,988.9
2019-03-23T03:07:23.498Z,988.9
2019-03-23T03:08:24.870Z,988.9
2019-03-23T03:09:27.550Z,988.9
2019-03-23T03:10:28.798Z,988.9
2019-03-23T03:11:30.057Z,988.9
2019-03-23T03:12:31.337Z,989
2019-03-23T03:13:32.629Z,989
2019-03-23T03:14:33.897Z,989
2019-03-23T03:15:35.146Z,989
2019-03-23T03:16:36.405Z,988.9
2019-03-23T03:17:40.381Z,988.9
2019-03-23T03:18:41.671Z,988.8
2019-03-23T03:19:42.946Z,988.9
2019-03-23T03:20:44.237Z,988.9
2019-03-23T03:21:45.501Z,989
2019-03-23T03:22:46.824Z,988.9
2019-03-23T03:23:48.076Z,988.9
2019-03-23T03:24:49.340Z,988.9
2019-03-23T03:25:50.609Z,988.9
2019-03-23T03:26:51.860Z,988.7
2019-03-23T03:27:53.168Z,988.9
2019-03-23T03:28:54.428Z,989
2019-03-23T03:29:58.396Z,989
2019-03-23T03:30:59.706Z,989
2019-03-23T03:32:00.980Z,989
2019-03-23T03:33:02.316Z,989
2019-03-23T03:34:03.610Z,989
2019-03-23T03:35:04.871Z,989
2019-03-23T03:36:06.122Z,988.9
2019-03-23T03:37:07.374Z,989
2019-03-23T03:38:09.302Z,989
2019-03-23T03:39:10.616Z,989
2019-03-23T03:40:11.878Z,988.9
2019-03-23T03:41:13.154Z,989
2019-03-23T03:42:14.410Z,989
2019-03-23T03:43:15.690Z,989
2019-03-23T03:44:18.942Z,989
2019-03-23T03:45:21.294Z,989
2019-03-23T03:46:24.744Z,988.9
2019-03-23T03:47:25.987Z,988.9
2019-03-23T03:48:27.293Z,988.9
2019-03-23T03:49:28.553Z,988.9
2019-03-23T03:50:29.806Z,988.9
2019-03-23T03:51:31.081Z,988.9
2019-03-23T03:52:32.353Z,989
2019-03-23T03:53:33.880Z,988.9
2019-03-23T03:54:35.143Z,988.9
2019-03-23T03:55:36.414Z,988.9
2019-03-23T03:56:37.675Z,988.9
2019-03-23T03:57:39.027Z,988.9
2019-03-23T03:58:40.371Z,989
2019-03-23T03:59:41.627Z,989
2019-03-23T04:00:42.893Z,989
2019-03-23T04:01:44.168Z,989.1
2019-03-23T04:02:45.414Z,989.1
2019-03-23T04:03:46.726Z,989
2019-03-23T04:04:47.984Z,989.1
2019-03-23T04:05:49.223Z,989.1
2019-03-23T04:06:50.497Z,989.1
2019-03-23T04:07:51.744Z,989.1
2019-03-23T04:08:53.724Z,989.1
2019-03-23T04:09:55.011Z,989.1
2019-03-23T04:10:56.276Z,989
2019-03-23T04:11:57.524Z,989.1
2019-03-23T04:12:58.777Z,989.1
2019-03-23T04:14:01.252Z,989.1
2019-03-23T04:15:02.552Z,989.1
2019-03-23T04:16:03.808Z,989.2
2019-03-23T04:17:05.089Z,989.2
2019-03-23T04:18:06.351Z,989.2
2019-03-23T04:19:07.641Z,989.2
2019-03-23T04:20:08.921Z,989.2
2019-03-23T04:21:10.182Z,989.2
2019-03-23T04:22:11.449Z,989.2
2019-03-23T04:23:12.706Z,989.2
2019-03-23T04:24:14.032Z,989.2
2019-03-23T04:25:15.287Z,989.2
2019-03-23T04:26:16.560Z,989.2
2019-03-23T04:27:17.807Z,989.2
2019-03-23T04:28:19.102Z,989.2
2019-03-23T04:29:20.699Z,989.2
2019-03-23T04:30:21.969Z,989.2
2019-03-23T04:31:23.210Z,989.3
2019-03-23T04:32:24.558Z,989.2
2019-03-23T04:33:25.820Z,988.5
2019-03-23T04:34:27.131Z,989.2
2019-03-23T04:35:28.369Z,989.2
2019-03-23T04:36:29.611Z,989.1
2019-03-23T04:37:30.872Z,989.2
2019-03-23T04:38:32.135Z,989.2
2019-03-23T04:39:33.808Z,989.2
2019-03-23T04:40:35.077Z,989.1
2019-03-23T04:41:36.348Z,989.2
2019-03-23T04:42:37.607Z,989.3
2019-03-23T04:43:38.853Z,989.2
2019-03-23T04:44:40.130Z,989.2
2019-03-23T04:45:41.367Z,989.2
2019-03-23T04:46:44.751Z,989.2
2019-03-23T04:47:45.993Z,989.2
2019-03-23T04:48:47.249Z,989.2
2019-03-23T04:49:48.525Z,989.2
2019-03-23T04:50:49.787Z,989.2
2019-03-23T04:51:51.044Z,989.2
2019-03-23T04:52:52.323Z,989.1
2019-03-23T04:53:53.579Z,989.3
2019-03-23T04:54:55.329Z,989.3
2019-03-23T04:55:56.594Z,989.3
2019-03-23T04:56:57.841Z,989.3
2019-03-23T04:57:59.077Z,989.3
2019-03-23T04:59:00.314Z,989.4
2019-03-23T05:00:01.616Z,989.3
2019-03-23T05:01:05.074Z,989.3
2019-03-23T05:02:06.321Z,989.3
2019-03-23T05:03:07.589Z,989.4
2019-03-23T05:04:08.843Z,989.3
2019-03-23T05:05:11.321Z,989.3
2019-03-23T05:06:12.597Z,989.3
2019-03-23T05:07:13.923Z,989.4
2019-03-23T05:08:15.187Z,989.3
2019-03-23T05:09:16.457Z,989.3
2019-03-23T05:10:17.871Z,989.4
2019-03-23T05:11:26.445Z,989.3
2019-03-23T05:12:27.679Z,989.3
2019-03-23T05:13:29.217Z,989.4
2019-03-23T05:14:30.457Z,989.4
2019-03-23T05:15:31.741Z,989.4
2019-03-23T05:16:33.009Z,989.3
2019-03-23T05:17:34.280Z,989.4
2019-03-23T05:18:35.527Z,989.4
2019-03-23T05:19:36.873Z,989.4
2019-03-23T05:20:38.175Z,989.4
2019-03-23T05:21:39.712Z,989.4
2019-03-23T05:22:40.970Z,989.4
2019-03-23T05:23:42.226Z,989.4
2019-03-23T05:24:43.473Z,989.5
2019-03-23T05:25:44.958Z,989.4
2019-03-23T05:26:46.202Z,989.2
2019-03-23T05:27:47.454Z,989.5
2019-03-23T05:28:48.701Z,989.5
2019-03-23T05:29:49.956Z,989.5
2019-03-23T05:30:51.293Z,989.5
2019-03-23T05:31:52.559Z,989.5
2019-03-23T05:32:53.820Z,989.5
2019-03-23T05:33:55.079Z,989.5
2019-03-23T05:34:56.323Z,989.7
2019-03-23T05:35:58.731Z,989.8
2019-03-23T05:36:59.972Z,989.9
2019-03-23T05:38:01.224Z,989.8
2019-03-23T05:39:02.477Z,989.9
2019-03-23T05:40:03.734Z,989.8
2019-03-23T05:41:05.051Z,989.8
2019-03-23T05:42:06.297Z,989.8
2019-03-23T05:43:08.872Z,989.8
2019-03-23T05:44:10.130Z,989.8
2019-03-23T05:45:11.429Z,989.8
2019-03-23T05:46:12.692Z,989.9
2019-03-23T05:47:13.973Z,989.9
2019-03-23T05:48:16.370Z,989.8
2019-03-23T05:49:17.645Z,989.8
2019-03-23T05:50:18.909Z,989.9
2019-03-23T05:51:20.222Z,989.9
2019-03-23T05:52:21.482Z,989.9
2019-03-23T05:53:22.746Z,990
2019-03-23T05:54:24.028Z,989.9
2019-03-23T05:55:25.292Z,989.9
2019-03-23T05:56:26.897Z,990
2019-03-23T05:57:28.164Z,990
2019-03-23T05:58:29.425Z,990
2019-03-23T05:59:30.680Z,990
2019-03-23T06:00:32.194Z,989.5
2019-03-23T06:01:33.478Z,990.1
2019-03-23T06:02:34.764Z,990.1
2019-03-23T06:03:36.012Z,990.2
2019-03-23T06:04:37.269Z,990.2
2019-03-23T06:05:38.530Z,990.2
2019-03-23T06:06:39.820Z,990.2
2019-03-23T06:07:41.068Z,990.2
2019-03-23T06:08:42.344Z,990.3
2019-03-23T06:09:43.600Z,990.3
2019-03-23T06:10:44.858Z,990.2
2019-03-23T06:11:46.193Z,990.3
2019-03-23T06:12:47.440Z,990.3
2019-03-23T06:13:48.687Z,990.3
2019-03-23T06:14:49.979Z,990.3
2019-03-23T06:15:52.292Z,990.3
2019-03-23T06:16:54.656Z,990.3
2019-03-23T06:17:55.924Z,990.3
2019-03-23T06:18:57.194Z,990.3
2019-03-23T06:19:58.464Z,990.3
2019-03-23T06:20:59.713Z,990.3
2019-03-23T06:22:01.304Z,990.3
2019-03-23T06:23:02.578Z,990.3
2019-03-23T06:24:03.836Z,990.2
2019-03-23T06:25:05.107Z,990.3
2019-03-23T06:26:07.228Z,990.2
2019-03-23T06:27:08.562Z,990.1
2019-03-23T06:28:12.264Z,990.1
2019-03-23T06:29:13.520Z,990
2019-03-23T06:30:14.768Z,990
2019-03-23T06:31:16.054Z,990
2019-03-23T06:32:17.682Z,990
2019-03-23T06:33:19.016Z,990
2019-03-23T06:34:20.275Z,990
2019-03-23T06:35:21.558Z,990.1
2019-03-23T06:36:26.279Z,990.1
2019-03-23T06:37:27.838Z,990.1
2019-03-23T06:38:29.061Z,990.1
2019-03-23T06:39:30.328Z,990.1
2019-03-23T06:40:31.592Z,990.1
2019-03-23T06:41:32.833Z,990.1
2019-03-23T06:42:34.164Z,990.2
2019-03-23T06:43:35.412Z,990.2
2019-03-23T06:44:36.658Z,990.2
2019-03-23T06:45:37.922Z,990.2
2019-03-23T06:46:39.188Z,990.3
2019-03-23T06:47:40.802Z,990.3
2019-03-23T06:48:42.044Z,990.3
2019-03-23T06:49:43.416Z,990.3
2019-03-23T06:50:44.686Z,990.3
2019-03-23T06:51:45.992Z,990.4
2019-03-23T06:52:47.279Z,990.4
2019-03-23T06:53:48.552Z,990.4
2019-03-23T06:54:49.833Z,990.3
2019-03-23T06:55:51.073Z,990.4
2019-03-23T06:56:52.335Z,990.5
2019-03-23T06:57:53.929Z,990.5
2019-03-23T06:58:55.184Z,990.5
2019-03-23T06:59:56.433Z,990.5
2019-03-23T07:01:00.235Z,990.5
2019-03-23T07:02:01.486Z,990.6
2019-03-23T07:03:02.794Z,990.6
2019-03-23T07:04:04.076Z,990.7
2019-03-23T07:05:05.347Z,990.1
2019-03-23T07:06:06.795Z,990.7
2019-03-23T07:07:08.048Z,990.8
2019-03-23T07:08:09.359Z,990.9
2019-03-23T07:09:19.760Z,990.9
2019-03-23T07:10:21.034Z,990.9
2019-03-23T07:11:22.327Z,991
2019-03-23T07:12:23.627Z,990.9
2019-03-23T07:13:25.095Z,990.9
2019-03-23T07:14:26.360Z,991
2019-03-23T07:15:27.646Z,991
2019-03-23T07:16:28.907Z,991
2019-03-23T07:17:30.176Z,991
2019-03-23T07:18:31.487Z,991
2019-03-23T07:19:32.755Z,991.1
2019-03-23T07:20:34.027Z,991.1
2019-03-23T07:21:35.325Z,991.1
2019-03-23T07:22:36.579Z,991.1
2019-03-23T07:23:39.065Z,991.2
2019-03-23T07:24:40.337Z,991.2
2019-03-23T07:25:41.664Z,991.2
2019-03-23T07:26:43.326Z,991.2
2019-03-23T07:27:44.645Z,991.1
2019-03-23T07:28:45.997Z,991.2
2019-03-23T07:29:47.281Z,991.2
2019-03-23T07:30:48.555Z,991.2
2019-03-23T07:31:49.810Z,991.2
2019-03-23T07:32:51.079Z,991.2
2019-03-23T07:33:52.385Z,991.1
2019-03-23T07:34:53.679Z,991.2
2019-03-23T07:35:54.983Z,991.2
2019-03-23T07:36:56.256Z,991.2
2019-03-23T07:37:57.837Z,991.2
2019-03-23T07:38:59.129Z,991.2
2019-03-23T07:40:00.413Z,991.2
2019-03-23T07:41:01.704Z,991.2
2019-03-23T07:42:02.983Z,991.3
2019-03-23T07:43:04.257Z,991.2
2019-03-23T07:44:05.596Z,991.3
2019-03-23T07:45:09.067Z,991.3
2019-03-23T07:46:12.249Z,991.3
2019-03-23T07:47:13.587Z,991.3
2019-03-23T07:48:14.845Z,991.4
2019-03-23T07:49:16.156Z,991.4
2019-03-23T07:50:17.401Z,991.4
2019-03-23T07:51:18.679Z,991.4
2019-03-23T07:52:19.957Z,991.4
2019-03-23T07:53:21.225Z,991.4
2019-03-23T07:54:22.527Z,991.5
2019-03-23T07:55:23.786Z,991.5
2019-03-23T07:56:31.459Z,991.5
2019-03-23T07:57:32.711Z,991.5
2019-03-23T07:58:36.559Z,991.6
2019-03-23T07:59:38.047Z,991.6
2019-03-23T08:00:41.623Z,991.7
2019-03-23T08:01:42.881Z,991.7
2019-03-23T08:02:46.453Z,991.8
2019-03-23T08:03:47.713Z,991.8
2019-03-23T08:04:51.117Z,991.8
2019-03-23T08:05:53.497Z,991.8
2019-03-23T08:06:55.007Z,991.8
2019-03-23T08:07:57.834Z,991.8
2019-03-23T08:08:59.093Z,991.9
2019-03-23T08:10:01.279Z,991.9
2019-03-23T08:11:02.613Z,992
2019-03-23T08:12:03.916Z,992
2019-03-23T08:13:05.319Z,992
2019-03-23T08:14:06.587Z,992
2019-03-23T08:15:07.917Z,992.1
2019-03-23T08:16:11.274Z,992.1
2019-03-23T08:17:12.545Z,992.2
2019-03-23T08:18:16.008Z,992.2
2019-03-23T08:19:17.321Z,992.3
2019-03-23T08:20:18.608Z,992.3
2019-03-23T08:21:22.317Z,992.3
2019-03-23T08:22:23.608Z,992.3
2019-03-23T08:23:24.904Z,992.4
2019-03-23T08:24:26.204Z,992.4
2019-03-23T08:25:27.554Z,992.4
2019-03-23T08:26:30.850Z,992.5
2019-03-23T08:27:42.821Z,992.4
2019-03-23T08:28:44.077Z,992.5
2019-03-23T08:29:45.338Z,992.5
2019-03-23T08:30:47.083Z,992.5
2019-03-23T08:31:51.433Z,992.5
2019-03-23T08:32:55.002Z,992.4
2019-03-23T08:33:56.300Z,992.5
2019-03-23T08:34:58.787Z,992.4
2019-03-23T08:36:00.090Z,992.1
2019-03-23T08:37:02.849Z,992.6
2019-03-23T08:38:06.221Z,992.5
2019-03-23T08:39:07.594Z,992.6
2019-03-23T08:40:10.851Z,992.6
2019-03-23T08:41:14.453Z,992.7
2019-03-23T08:42:20.595Z,992.7
2019-03-23T08:43:21.855Z,992.6
2019-03-23T08:44:23.118Z,992.7
2019-03-23T08:45:24.395Z,992.6
2019-03-23T08:46:25.728Z,992.7
2019-03-23T08:47:27.007Z,992.7
2019-03-23T08:48:28.255Z,992.7
2019-03-23T08:49:29.501Z,992.8
2019-03-23T08:50:30.844Z,992.8
2019-03-23T08:51:32.152Z,992.8
2019-03-23T08:52:36.453Z,992.8
2019-03-23T08:53:37.734Z,992.9
2019-03-23T08:54:39.874Z,992.9
2019-03-23T08:55:41.533Z,992.8
2019-03-23T08:56:43.233Z,992.8
2019-03-23T08:57:44.738Z,992.8
2019-03-23T08:58:46.250Z,992.8
2019-03-23T08:59:47.865Z,992.8
2019-03-23T09:00:49.356Z,992.8
2019-03-23T09:01:50.670Z,992.8
2019-03-23T09:02:51.942Z,992.9
2019-03-23T09:03:53.593Z,992.8
2019-03-23T09:04:54.850Z,992.9
2019-03-23T09:05:56.316Z,992.8
2019-03-23T09:06:57.602Z,992.9
2019-03-23T09:07:58.868Z,992.9
2019-03-23T09:09:00.130Z,992.9
2019-03-23T09:10:02.534Z,992.9
2019-03-23T09:11:03.799Z,992.9
2019-03-23T09:12:07.886Z,992.8
2019-03-23T09:13:09.146Z,992.9
2019-03-23T09:14:10.427Z,992.9
2019-03-23T09:15:11.702Z,992.9
2019-03-23T09:16:15.188Z,992.9
2019-03-23T09:17:17.252Z,992.9
2019-03-23T09:18:21.250Z,992.8
2019-03-23T09:19:22.526Z,992.9
2019-03-23T09:20:23.807Z,992.8
2019-03-23T09:21:26.219Z,992.8
2019-03-23T09:22:27.525Z,992.8
2019-03-23T09:23:28.772Z,992.7
2019-03-23T09:24:31.371Z,992.7
2019-03-23T09:25:32.644Z,992.7
2019-03-23T09:26:33.922Z,992.6
2019-03-23T09:27:35.238Z,992.6
2019-03-23T09:28:36.530Z,992.5
2019-03-23T09:29:37.790Z,992.6
2019-03-23T09:30:39.077Z,992.6
2019-03-23T09:31:40.342Z,992.5
2019-03-23T09:32:41.874Z,992.5
2019-03-23T09:33:43.144Z,992.6
2019-03-23T09:34:44.526Z,992.6
2019-03-23T09:35:45.791Z,992.6
2019-03-23T09:36:47.042Z,992.5
2019-03-23T09:37:48.432Z,992.5
2019-03-23T09:38:49.705Z,992.5
2019-03-23T09:39:50.944Z,992.6
2019-03-23T09:40:54.284Z,992.6
2019-03-23T09:41:55.549Z,992.5
2019-03-23T09:42:57.240Z,992.6
2019-03-23T09:43:58.528Z,992.6
2019-03-23T09:45:00.116Z,992.6
2019-03-23T09:47:18.157Z,992.6
2019-03-23T09:48:19.726Z,992.6
2019-03-23T09:49:24.208Z,992.6
2019-03-23T09:50:25.486Z,992.5
2019-03-23T09:51:30.108Z,992.6
2019-03-23T09:52:31.361Z,992.5
2019-03-23T09:53:33.598Z,992.6
2019-03-23T09:54:34.862Z,992.5
2019-03-23T09:55:36.197Z,992.5
2019-03-23T09:56:37.474Z,992.5
2019-03-23T09:57:38.862Z,992.5
2019-03-23T09:58:42.448Z,992.6
2019-03-23T09:59:43.718Z,992.5
2019-03-23T10:00:45.294Z,992.5
2019-03-23T10:01:47.672Z,992.6
2019-03-23T10:02:59.784Z,992.5
2019-03-23T10:04:04.670Z,992.5
2019-03-23T10:05:05.948Z,992.5
2019-03-23T10:06:08.305Z,992.6
2019-03-23T10:07:12.244Z,992.6
2019-03-23T10:08:13.516Z,992.6
2019-03-23T10:09:14.831Z,992.6
2019-03-23T10:10:22.616Z,992.5
2019-03-23T10:11:23.914Z,992.6
2019-03-23T10:12:25.236Z,992.5
2019-03-23T10:13:27.523Z,992.6
2019-03-23T10:14:28.815Z,992.6
2019-03-23T10:15:30.100Z,992.5
2019-03-23T10:16:31.400Z,992.6
2019-03-23T10:17:36.302Z,992.6
2019-03-23T10:18:37.589Z,992.6
2019-03-23T10:19:38.969Z,992.6
2019-03-23T10:20:42.642Z,992.6
2019-03-23T10:21:44.289Z,992.6
2019-03-23T10:22:45.574Z,992.6
2019-03-23T10:23:46.934Z,992.6
2019-03-23T10:24:48.361Z,992.5
2019-03-23T10:25:49.626Z,992.5
2019-03-23T10:26:55.017Z,992.5
2019-03-23T10:27:56.801Z,992.6
2019-03-23T10:28:58.080Z,992.6
2019-03-23T10:29:59.383Z,992.6
2019-03-23T10:31:00.730Z,992.6
2019-03-23T10:32:02.014Z,992.5
2019-03-23T10:33:03.298Z,992.5
2019-03-23T10:34:04.583Z,992.5
2019-03-23T10:35:06.053Z,992.5
2019-03-23T10:36:07.323Z,992.5
2019-03-23T10:37:09.898Z,992.5
2019-03-23T10:38:11.194Z,992.5
2019-03-23T10:39:12.544Z,992.5
2019-03-23T10:40:13.991Z,992.6
2019-03-23T10:41:15.716Z,992.5
2019-03-23T10:42:17.070Z,992.5
2019-03-23T10:43:18.327Z,992.5
2019-03-23T10:44:19.580Z,992.5
2019-03-23T10:45:22.003Z,992.6
2019-03-23T10:46:25.753Z,992.5
2019-03-23T10:47:28.372Z,992.6
2019-03-23T10:48:33.365Z,992.5
2019-03-23T10:49:34.611Z,992.5
2019-03-23T10:50:36.050Z,992.5
2019-03-23T10:51:37.321Z,992.5
2019-03-23T10:52:38.874Z,992.6
2019-03-23T10:53:44.105Z,992.5
2019-03-23T10:54:45.407Z,992.5
2019-03-23T10:55:46.727Z,992.5
2019-03-23T10:56:48.329Z,992.6
2019-03-23T10:57:49.887Z,992.6
2019-03-23T10:58:54.403Z,992.5
2019-03-23T10:59:55.978Z,992.6
2019-03-23T11:00:57.779Z,992.5
2019-03-23T11:01:59.038Z,992.5
2019-03-23T11:03:00.585Z,992.5
2019-03-23T11:04:01.854Z,992.5
2019-03-23T11:05:03.491Z,992.5
2019-03-23T11:06:04.959Z,992.5
2019-03-23T11:07:06.240Z,992.5
2019-03-23T11:08:07.525Z,992.5
2019-03-23T11:09:12.278Z,992.5
2019-03-23T11:10:13.889Z,992.5
2019-03-23T11:11:19.252Z,992.5
2019-03-23T11:12:20.819Z,992.5
2019-03-23T11:13:26.862Z,992.5
2019-03-23T11:14:29.610Z,992.5
2019-03-23T11:15:35.689Z,992.5
2019-03-23T11:16:37.519Z,992.5
2019-03-23T11:17:42.395Z,992.5
2019-03-23T11:18:46.059Z,992.5
2019-03-23T11:19:47.322Z,992.5
2019-03-23T11:20:52.365Z,992.5
2019-03-23T11:21:53.682Z,992.5
2019-03-23T11:22:59.001Z,992.6
2019-03-23T11:24:00.291Z,992.7
2019-03-23T11:25:01.563Z,992.6
2019-03-23T11:26:02.836Z,992.6
2019-03-23T11:27:04.131Z,992.6
2019-03-23T11:28:06.731Z,992.6
2019-03-23T11:29:09.253Z,992.6
2019-03-23T11:30:10.513Z,992.5
2019-03-23T11:31:16.565Z,992.6
2019-03-23T11:32:19.068Z,992.6
2019-03-23T11:33:20.367Z,992.6
2019-03-23T11:34:23.873Z,992.6
2019-03-23T11:35:25.803Z,992.6
2019-03-23T11:36:27.057Z,992.6
2019-03-23T11:37:28.710Z,992.6
2019-03-23T11:38:30.016Z,992.6
2019-03-23T11:39:31.371Z,992.6
2019-03-23T11:40:32.679Z,992.6
2019-03-23T11:41:35.187Z,992.6
2019-03-23T11:42:36.883Z,992.6
2019-03-23T11:43:38.134Z,992.6
2019-03-23T11:44:39.530Z,992.6
2019-03-23T11:45:45.232Z,992.6
2019-03-23T11:46:46.810Z,992.6
2019-03-23T11:47:48.229Z,992.4
2019-03-23T11:48:51.701Z,992.6
2019-03-23T11:49:53.931Z,992.6
2019-03-23T11:50:58.219Z,992.6
2019-03-23T11:51:59.781Z,992.6
2019-03-23T11:53:01.397Z,992.6
2019-03-23T11:54:04.109Z,992.7
2019-03-23T11:55:06.463Z,992.7
2019-03-23T11:56:09.895Z,992.7
2019-03-23T11:57:11.313Z,992.7
2019-03-23T11:58:12.591Z,992.7
2019-03-23T11:59:13.865Z,992.7
2019-03-23T12:00:17.131Z,992.7
2019-03-23T12:01:18.407Z,992.8
2019-03-23T12:02:19.655Z,992.8
2019-03-23T12:03:20.963Z,992.8
2019-03-23T12:04:22.219Z,992.8
2019-03-23T12:05:23.567Z,992.8
2019-03-23T12:06:24.883Z,992.7
2019-03-23T12:07:26.126Z,992.7
2019-03-23T12:08:29.723Z,992.7
2019-03-23T12:09:30.991Z,992.7
2019-03-23T12:10:32.298Z,992.7
2019-03-23T12:11:33.556Z,992.7
2019-03-23T12:12:34.839Z,992.7
2019-03-23T12:13:36.302Z,992.6
2019-03-23T12:14:37.554Z,992.6
2019-03-23T12:15:41.428Z,992.7
2019-03-23T12:16:42.684Z,992.7
2019-03-23T12:17:44.210Z,992.7
2019-03-23T12:18:46.947Z,992.7
2019-03-23T12:19:48.601Z,992.7
2019-03-23T12:20:49.867Z,992.7
2019-03-23T12:21:54.139Z,992.5
2019-03-23T12:24:11.178Z,992.7
2019-03-23T12:25:13.614Z,992.6
2019-03-23T12:26:14.923Z,992.7
2019-03-23T12:27:16.174Z,992.6
2019-03-23T12:28:17.426Z,992.7
2019-03-23T12:29:18.704Z,992.7
2019-03-23T12:30:20.023Z,992.7
2019-03-23T12:31:21.299Z,992.7
2019-03-23T12:32:22.578Z,992.6
2019-03-23T12:33:26.038Z,992.6
2019-03-23T12:34:27.342Z,992.6
2019-03-23T12:35:33.058Z,992.6
2019-03-23T12:36:34.335Z,992.6
2019-03-23T12:37:35.595Z,992.6
2019-03-23T12:38:37.609Z,992.6
2019-03-23T12:39:38.950Z,992.6
2019-03-23T12:40:40.219Z,992.6
2019-03-23T12:41:41.822Z,992.6
2019-03-23T12:42:45.457Z,992.6
2019-03-23T12:43:46.785Z,992.6
2019-03-23T12:44:48.096Z,992.5
2019-03-23T12:45:53.078Z,992.5
2019-03-23T12:46:54.420Z,992.5
2019-03-23T12:47:55.798Z,992.5
2019-03-23T12:48:59.540Z,992.5
2019-03-23T12:50:02.074Z,992.4
2019-03-23T12:51:04.413Z,992.4
2019-03-23T12:52:05.656Z,992.4
2019-03-23T12:53:06.925Z,992.4
2019-03-23T12:54:10.328Z,992.4
2019-03-23T12:55:13.360Z,992.4
2019-03-23T12:56:14.704Z,992.4
2019-03-23T12:57:16.260Z,992.3
2019-03-23T12:58:17.526Z,992.4
2019-03-23T12:59:18.816Z,992.4
2019-03-23T13:00:23.906Z,992.4
2019-03-23T13:01:25.176Z,992.3
2019-03-23T13:02:26.482Z,992.4
2019-03-23T13:03:27.790Z,992.3
2019-03-23T13:04:31.400Z,992.4
2019-03-23T13:05:32.807Z,992.3
2019-03-23T13:06:34.081Z,992.4
2019-03-23T13:07:36.256Z,992.4
2019-03-23T13:08:41.573Z,992.4
2019-03-23T13:09:45.759Z,992.3
2019-03-23T13:10:47.862Z,992.4
2019-03-23T13:11:49.547Z,992.3
2019-03-23T13:12:50.853Z,992.3
2019-03-23T13:13:52.102Z,992.3
2019-03-23T13:14:53.400Z,992.3
2019-03-23T13:15:59.100Z,992.3
2019-03-23T13:17:02.240Z,992.3
2019-03-23T13:18:05.970Z,992.3
2019-03-23T13:19:09.230Z,992.3
2019-03-23T13:20:12.274Z,992.3
2019-03-23T13:21:21.889Z,992.3
2019-03-23T13:22:23.280Z,992.3
2019-03-23T13:23:24.790Z,992.3
2019-03-23T13:24:26.061Z,992.2
2019-03-23T13:25:31.308Z,992.3